createdAt,value
2018-09-09T00:01:08.001Z,15.56
2018-09-09T00:03:36.501Z,15.54
2018-09-09T00:06:05.639Z,15.47
2018-09-09T00:08:34.259Z,15.51
2018-09-09T00:11:02.766Z,15.48
2018-09-09T00:13:31.291Z,15.46
2018-09-09T00:16:00.727Z,15.44
2018-09-09T00:18:29.232Z,15.42
2018-09-09T00:20:57.820Z,15.42
2018-09-09T00:23:26.506Z,15.40
2018-09-09T00:25:55.230Z,15.42
2018-09-09T00:28:23.768Z,15.36
2018-09-09T00:30:52.250Z,15.33
2018-09-09T00:33:20.748Z,15.37
2018-09-09T00:35:49.252Z,15.36
2018-09-09T00:38:17.754Z,15.36
2018-09-09T00:40:46.235Z,15.41
2018-09-09T00:43:14.964Z,15.36
2018-09-09T00:45:43.480Z,15.36
2018-09-09T00:48:12.141Z,15.38
2018-09-09T00:50:45.917Z,15.34
2018-09-09T00:53:19.647Z,15.29
2018-09-09T00:55:48.207Z,15.32
2018-09-09T00:58:16.739Z,15.35
2018-09-09T01:00:50.367Z,15.39
2018-09-09T01:03:18.853Z,15.37
2018-09-09T01:05:47.367Z,15.33
2018-09-09T01:08:16.023Z,15.29
2018-09-09T01:10:44.516Z,15.32
2018-09-09T01:13:12.987Z,15.28
2018-09-09T01:15:42.280Z,15.30
2018-09-09T01:18:10.805Z,15.25
2018-09-09T01:20:39.359Z,15.20
2018-09-09T01:23:07.863Z,15.22
2018-09-09T01:25:36.402Z,15.17
2018-09-09T01:28:05.756Z,15.18
2018-09-09T01:30:34.797Z,15.16
2018-09-09T01:33:03.371Z,15.17
2018-09-09T01:35:31.848Z,15.10
2018-09-09T01:38:00.291Z,15.11
2018-09-09T01:40:28.723Z,15.08
2018-09-09T01:42:57.282Z,15.07
2018-09-09T01:45:25.839Z,15.02
2018-09-09T01:47:54.353Z,15.06
2018-09-09T01:50:22.986Z,15.04
2018-09-09T01:52:51.546Z,15.03
2018-09-09T01:55:19.992Z,15.01
2018-09-09T01:57:48.609Z,15.04
2018-09-09T02:00:17.212Z,15.03
2018-09-09T02:02:45.850Z,15.02
2018-09-09T02:05:14.444Z,14.99
2018-09-09T02:07:43.860Z,15.00
2018-09-09T02:10:12.419Z,14.99
2018-09-09T02:12:41.265Z,15.02
2018-09-09T02:15:09.887Z,15.00
2018-09-09T02:17:38.410Z,14.99
2018-09-09T02:20:07.002Z,14.96
2018-09-09T02:22:35.538Z,14.94
2018-09-09T02:25:04.137Z,14.95
2018-09-09T02:27:32.698Z,14.93
2018-09-09T02:30:01.196Z,14.92
2018-09-09T02:32:29.673Z,14.89
2018-09-09T02:34:59.280Z,14.91
2018-09-09T02:37:27.765Z,14.85
2018-09-09T02:39:57.144Z,14.84
2018-09-09T02:42:26.040Z,14.81
2018-09-09T02:44:54.634Z,14.79
2018-09-09T02:47:23.127Z,14.80
2018-09-09T02:49:51.616Z,14.78
2018-09-09T02:52:20.224Z,14.67
2018-09-09T02:54:48.741Z,14.64
2018-09-09T02:57:17.375Z,14.63
2018-09-09T02:59:46.517Z,14.67
2018-09-09T03:02:15.092Z,14.63
2018-09-09T03:04:43.684Z,14.64
2018-09-09T03:07:12.189Z,14.65
2018-09-09T03:09:40.755Z,14.63
2018-09-09T03:12:09.287Z,14.63
2018-09-09T03:14:37.860Z,14.61
2018-09-09T03:17:06.822Z,14.66
2018-09-09T03:19:35.600Z,14.65
2018-09-09T03:22:04.153Z,14.63
2018-09-09T03:24:32.700Z,14.67
2018-09-09T03:27:01.313Z,14.70
2018-09-09T03:29:29.841Z,14.72
2018-09-09T03:31:58.347Z,14.71
2018-09-09T03:34:26.892Z,14.68
2018-09-09T03:36:55.701Z,14.70
2018-09-09T03:39:24.552Z,14.72
2018-09-09T03:41:53.294Z,14.73
2018-09-09T03:44:21.801Z,14.72
2018-09-09T03:46:50.406Z,14.75
2018-09-09T03:49:19.011Z,14.77
2018-09-09T03:51:48.415Z,14.79
2018-09-09T03:54:16.967Z,14.83
2018-09-09T03:56:45.549Z,14.87
2018-09-09T03:59:14.126Z,14.80
2018-09-09T04:01:42.606Z,14.84
2018-09-09T04:04:11.121Z,14.78
2018-09-09T04:06:39.769Z,14.73
2018-09-09T04:09:08.718Z,14.72
2018-09-09T04:11:37.579Z,14.69
2018-09-09T04:14:06.356Z,14.66
2018-09-09T04:16:35.547Z,14.64
2018-09-09T04:19:04.042Z,14.63
2018-09-09T04:21:38.851Z,14.65
2018-09-09T04:24:07.558Z,14.64
2018-09-09T04:26:36.281Z,14.58
2018-09-09T04:29:05.016Z,14.58
2018-09-09T04:31:33.575Z,14.57
2018-09-09T04:34:02.120Z,14.54
2018-09-09T04:36:30.727Z,14.52
2018-09-09T04:38:59.317Z,14.45
2018-09-09T04:41:27.911Z,14.40
2018-09-09T04:43:56.441Z,14.35
2018-09-09T04:46:24.937Z,14.37
2018-09-09T04:48:53.482Z,14.34
2018-09-09T04:51:22.091Z,14.32
2018-09-09T04:53:50.673Z,14.31
2018-09-09T04:56:19.207Z,14.28
2018-09-09T04:58:47.774Z,14.25
2018-09-09T05:01:16.305Z,14.23
2018-09-09T05:03:44.763Z,14.18
2018-09-09T05:06:13.229Z,14.18
2018-09-09T05:08:41.715Z,14.21
2018-09-09T05:11:11.414Z,14.21
2018-09-09T05:13:39.880Z,14.23
2018-09-09T05:16:08.902Z,14.24
2018-09-09T05:18:37.361Z,14.17
2018-09-09T05:21:06.139Z,14.20
2018-09-09T05:23:34.650Z,14.25
2018-09-09T05:26:03.182Z,14.26
2018-09-09T05:28:32.009Z,14.28
2018-09-09T05:31:00.782Z,14.32
2018-09-09T05:33:29.330Z,14.35
2018-09-09T05:35:57.965Z,14.37
2018-09-09T05:38:26.676Z,14.39
2018-09-09T05:40:55.260Z,14.43
2018-09-09T05:43:23.781Z,14.43
2018-09-09T05:45:52.301Z,14.49
2018-09-09T05:48:21.009Z,14.56
2018-09-09T05:50:49.709Z,14.61
2018-09-09T05:53:18.740Z,14.63
2018-09-09T05:55:47.429Z,14.66
2018-09-09T05:58:15.927Z,14.73
2018-09-09T06:00:44.659Z,14.77
2018-09-09T06:03:13.229Z,14.83
2018-09-09T06:05:41.861Z,14.91
2018-09-09T06:08:10.484Z,14.95
2018-09-09T06:10:38.970Z,15.04
2018-09-09T06:13:08.245Z,15.12
2018-09-09T06:15:36.828Z,15.20
2018-09-09T06:18:05.717Z,15.22
2018-09-09T06:20:34.585Z,15.28
2018-09-09T06:23:03.285Z,15.39
2018-09-09T06:25:31.771Z,15.42
2018-09-09T06:28:00.330Z,15.47
2018-09-09T06:30:28.948Z,15.52
2018-09-09T06:32:57.441Z,15.54
2018-09-09T06:35:26.948Z,15.56
2018-09-09T06:37:55.596Z,15.63
2018-09-09T06:40:24.175Z,15.71
2018-09-09T06:42:52.658Z,15.77
2018-09-09T06:45:21.218Z,15.81
2018-09-09T06:47:50.434Z,15.89
2018-09-09T06:50:20.424Z,15.97
2018-09-09T06:52:48.975Z,16.00
2018-09-09T06:55:18.138Z,16.11
2018-09-09T06:57:46.864Z,16.20
2018-09-09T07:00:15.431Z,16.33
2018-09-09T07:02:44.068Z,16.41
2018-09-09T07:05:12.743Z,16.38
2018-09-09T07:07:41.478Z,16.36
2018-09-09T07:10:10.902Z,16.38
2018-09-09T07:12:42.180Z,16.42
2018-09-09T07:15:10.815Z,16.55
2018-09-09T07:17:49.541Z,16.81
2018-09-09T07:20:20.242Z,17.17
2018-09-09T07:22:51.695Z,17.47
2018-09-09T07:25:22.362Z,17.55
2018-09-09T07:27:53.097Z,18.02
2018-09-09T07:30:24.331Z,18.32
2018-09-09T07:32:55.808Z,18.60
2018-09-09T07:35:27.301Z,18.79
2018-09-09T07:37:58.677Z,18.90
2018-09-09T07:40:31.215Z,19.00
2018-09-09T07:43:01.943Z,18.90
2018-09-09T07:45:33.207Z,18.88
2018-09-09T07:48:04.649Z,18.92
2018-09-09T07:50:50.552Z,18.94
2018-09-09T07:53:22.300Z,18.96
2018-09-09T07:55:53.091Z,19.19
2018-09-09T07:58:24.187Z,19.35
2018-09-09T08:01:10.149Z,19.70
2018-09-09T08:03:41.057Z,20.19
2018-09-09T08:06:12.948Z,20.96
2018-09-09T08:08:44.103Z,20.94
2018-09-09T08:11:15.270Z,21.66
2018-09-09T08:13:46.671Z,22.17
2018-09-09T08:16:18.456Z,22.66
2018-09-09T08:18:49.905Z,22.35
2018-09-09T08:21:20.929Z,23.00
2018-09-09T08:23:52.285Z,23.53
2018-09-09T08:26:21.319Z,23.35
2018-09-09T08:28:51.682Z,23.55
2018-09-09T08:31:21.752Z,23.92
2018-09-09T08:33:51.136Z,23.74
2018-09-09T08:36:20.225Z,24.13
2018-09-09T08:38:49.418Z,23.90
2018-09-09T08:41:18.391Z,23.51
2018-09-09T08:43:47.776Z,23.15
2018-09-09T08:46:16.689Z,22.77
2018-09-09T08:48:45.816Z,22.53
2018-09-09T08:51:14.718Z,22.60
2018-09-09T08:53:43.604Z,21.85
2018-09-09T08:56:13.048Z,22.12
2018-09-09T08:58:41.717Z,22.00
2018-09-09T09:01:11.088Z,21.77
2018-09-09T09:03:41.015Z,21.72
2018-09-09T09:06:09.880Z,21.81
2018-09-09T09:08:38.742Z,21.48
2018-09-09T09:11:07.942Z,21.40
2018-09-09T09:13:37.116Z,21.24
2018-09-09T09:16:06.118Z,21.40
2018-09-09T09:18:36.877Z,21.20
2018-09-09T09:21:07.182Z,21.37
2018-09-09T09:23:36.096Z,21.35
2018-09-09T09:26:05.171Z,21.04
2018-09-09T09:28:34.164Z,20.69
2018-09-09T09:31:03.262Z,20.95
2018-09-09T09:33:33.444Z,21.09
2018-09-09T09:36:03.281Z,21.34
2018-09-09T09:38:32.079Z,21.32
2018-09-09T09:41:01.482Z,20.94
2018-09-09T09:43:30.044Z,21.17
2018-09-09T09:45:58.764Z,21.36
2018-09-09T09:48:27.822Z,21.61
2018-09-09T09:50:56.551Z,21.81
2018-09-09T09:53:25.780Z,21.87
2018-09-09T09:55:55.757Z,21.68
2018-09-09T09:58:25.279Z,21.58
2018-09-09T10:01:00.176Z,21.92
2018-09-09T10:03:29.765Z,22.03
2018-09-09T10:05:58.750Z,22.31
2018-09-09T10:08:27.577Z,22.44
2018-09-09T10:10:56.941Z,22.57
2018-09-09T10:13:26.447Z,22.60
2018-09-09T10:15:56.071Z,22.73
2018-09-09T10:18:25.191Z,22.70
2018-09-09T10:20:54.150Z,22.85
2018-09-09T10:23:23.652Z,22.59
2018-09-09T10:25:52.347Z,22.41
2018-09-09T10:28:20.863Z,22.35
2018-09-09T10:30:49.503Z,22.52
2018-09-09T10:33:18.991Z,22.65
2018-09-09T10:35:48.692Z,22.63
2018-09-09T10:38:18.010Z,22.58
2018-09-09T10:40:47.003Z,22.71
2018-09-09T10:43:16.108Z,22.86
2018-09-09T10:45:45.687Z,22.91
2018-09-09T10:48:14.901Z,23.05
2018-09-09T10:50:44.925Z,23.18
2018-09-09T10:53:14.135Z,23.05
2018-09-09T10:55:43.231Z,23.02
2018-09-09T10:58:12.550Z,23.04
2018-09-09T11:00:41.201Z,22.79
2018-09-09T11:03:13.566Z,22.95
2018-09-09T11:05:42.143Z,23.18
2018-09-09T11:08:14.821Z,23.26
2018-09-09T11:10:43.774Z,23.22
2018-09-09T11:13:12.513Z,23.18
2018-09-09T11:15:41.309Z,23.19
2018-09-09T11:18:10.580Z,23.37
2018-09-09T11:20:39.526Z,23.09
2018-09-09T11:23:08.447Z,23.15
2018-09-09T11:25:38.052Z,23.28
2018-09-09T11:28:07.118Z,23.13
2018-09-09T11:30:36.599Z,23.13
2018-09-09T11:33:05.449Z,23.16
2018-09-09T11:35:34.602Z,23.06
2018-09-09T11:38:03.841Z,22.76
2018-09-09T11:40:34.836Z,22.82
2018-09-09T11:43:03.702Z,22.61
2018-09-09T11:45:32.894Z,22.90
2018-09-09T11:48:02.248Z,22.92
2018-09-09T11:50:30.990Z,23.06
2018-09-09T11:53:00.164Z,23.11
2018-09-09T11:55:28.847Z,23.03
2018-09-09T11:57:58.336Z,23.14
2018-09-09T12:00:27.336Z,23.31
2018-09-09T12:02:56.480Z,23.38
2018-09-09T12:05:25.225Z,23.19
2018-09-09T12:07:54.098Z,23.32
2018-09-09T12:10:22.611Z,23.32
2018-09-09T12:12:51.279Z,23.34
2018-09-09T12:15:20.712Z,23.31
2018-09-09T12:17:51.399Z,23.17
2018-09-09T12:20:22.863Z,23.26
2018-09-09T12:22:52.812Z,23.20
2018-09-09T12:25:21.991Z,23.33
2018-09-09T12:27:51.419Z,23.50
2018-09-09T12:30:20.345Z,23.36
2018-09-09T12:32:49.462Z,23.40
2018-09-09T12:35:18.909Z,23.35
2018-09-09T12:37:48.100Z,23.44
2018-09-09T12:40:17.140Z,23.47
2018-09-09T12:42:51.140Z,23.59
2018-09-09T12:45:26.397Z,23.61
2018-09-09T12:48:00.664Z,23.53
2018-09-09T12:50:29.516Z,23.34
2018-09-09T12:52:58.914Z,23.42
2018-09-09T12:55:28.192Z,23.18
2018-09-09T12:57:57.247Z,23.40
2018-09-09T13:00:26.372Z,23.53
2018-09-09T13:02:55.593Z,23.60
2018-09-09T13:05:25.073Z,23.61
2018-09-09T13:07:55.502Z,23.63
2018-09-09T13:10:24.310Z,23.68
2018-09-09T13:12:58.603Z,23.65
2018-09-09T13:15:28.580Z,23.75
2018-09-09T13:17:57.877Z,23.74
2018-09-09T13:20:28.130Z,23.65
2018-09-09T13:22:57.255Z,23.59
2018-09-09T13:25:26.379Z,23.72
2018-09-09T13:27:55.236Z,23.76
2018-09-09T13:30:24.523Z,23.79
2018-09-09T13:32:54.970Z,23.86
2018-09-09T13:35:24.529Z,23.96
2018-09-09T13:37:53.771Z,24.14
2018-09-09T13:40:23.353Z,24.15
2018-09-09T13:42:52.387Z,24.26
2018-09-09T13:45:22.292Z,24.29
2018-09-09T13:47:53.464Z,24.24
2018-09-09T13:50:24.246Z,24.11
2018-09-09T13:52:55.225Z,23.75
2018-09-09T13:55:26.986Z,23.82
2018-09-09T13:57:56.876Z,23.91
2018-09-09T14:00:27.829Z,24.03
2018-09-09T14:02:57.859Z,24.07
2018-09-09T14:05:28.359Z,24.15
2018-09-09T14:07:59.074Z,24.22
2018-09-09T14:10:30.357Z,24.20
2018-09-09T14:13:03.217Z,23.95
2018-09-09T14:15:34.577Z,23.61
2018-09-09T14:18:05.177Z,23.79
2018-09-09T14:20:35.551Z,23.65
2018-09-09T14:23:05.834Z,23.52
2018-09-09T14:25:38.137Z,23.49
2018-09-09T14:28:09.555Z,23.51
2018-09-09T14:30:39.911Z,23.44
2018-09-09T14:33:11.992Z,23.51
2018-09-09T14:35:43.953Z,23.49
2018-09-09T14:38:15.259Z,23.52
2018-09-09T14:40:48.354Z,23.38
2018-09-09T14:43:20.213Z,23.38
2018-09-09T14:45:51.610Z,23.40
2018-09-09T14:48:22.704Z,23.44
2018-09-09T14:50:53.656Z,23.35
2018-09-09T14:53:25.508Z,23.41
2018-09-09T14:55:56.536Z,23.44
2018-09-09T14:58:27.705Z,23.44
2018-09-09T15:00:57.378Z,23.33
2018-09-09T15:03:27.071Z,23.22
2018-09-09T15:05:56.715Z,23.29
2018-09-09T15:08:26.694Z,23.33
2018-09-09T15:10:56.620Z,23.35
2018-09-09T15:13:26.631Z,23.40
2018-09-09T15:15:56.844Z,23.39
2018-09-09T15:18:26.701Z,23.34
2018-09-09T15:20:55.651Z,23.28
2018-09-09T15:23:24.766Z,23.33
2018-09-09T15:25:53.645Z,23.27
2018-09-09T15:28:23.989Z,23.32
2018-09-09T15:30:54.676Z,23.28
2018-09-09T15:33:25.443Z,23.25
2018-09-09T15:35:55.482Z,23.21
2018-09-09T15:38:28.667Z,23.17
2018-09-09T15:40:58.888Z,23.21
2018-09-09T15:43:27.988Z,23.21
2018-09-09T15:45:58.781Z,23.22
2018-09-09T15:48:27.495Z,23.29
2018-09-09T15:50:57.163Z,23.29
2018-09-09T15:53:26.086Z,23.35
2018-09-09T15:55:55.701Z,23.34
2018-09-09T15:58:25.802Z,23.32
2018-09-09T16:00:55.007Z,23.35
2018-09-09T16:03:24.346Z,23.37
2018-09-09T16:05:53.329Z,23.35
2018-09-09T16:08:22.822Z,23.36
2018-09-09T16:10:52.547Z,23.42
2018-09-09T16:13:22.228Z,23.50
2018-09-09T16:15:52.252Z,23.55
2018-09-09T16:18:22.041Z,23.54
2018-09-09T16:20:50.924Z,23.50
2018-09-09T16:23:20.274Z,23.53
2018-09-09T16:25:50.473Z,23.51
2018-09-09T16:28:20.047Z,23.44
2018-09-09T16:30:49.239Z,23.45
2018-09-09T16:33:18.574Z,23.45
2018-09-09T16:35:47.949Z,23.39
2018-09-09T16:38:17.373Z,23.41
2018-09-09T16:40:46.476Z,23.27
2018-09-09T16:43:15.763Z,23.22
2018-09-09T16:45:45.340Z,23.20
2018-09-09T16:48:15.521Z,23.12
2018-09-09T16:50:44.471Z,23.03
2018-09-09T16:53:13.962Z,22.95
2018-09-09T16:55:43.471Z,22.90
2018-09-09T16:58:12.861Z,22.84
2018-09-09T17:00:41.744Z,22.79
2018-09-09T17:03:13.454Z,22.70
2018-09-09T17:05:42.973Z,22.67
2018-09-09T17:08:12.891Z,22.58
2018-09-09T17:10:42.684Z,22.51
2018-09-09T17:13:12.701Z,22.43
2018-09-09T17:15:42.244Z,22.39
2018-09-09T17:18:12.228Z,22.29
2018-09-09T17:20:41.799Z,22.23
2018-09-09T17:23:12.865Z,22.17
2018-09-09T17:25:44.288Z,22.13
2018-09-09T17:28:17.149Z,22.10
2018-09-09T17:30:49.956Z,21.97
2018-09-09T17:33:19.545Z,21.91
2018-09-09T17:35:48.435Z,21.83
2018-09-09T17:38:18.200Z,21.73
2018-09-09T17:40:47.072Z,21.64
2018-09-09T17:43:16.577Z,21.56
2018-09-09T17:45:45.412Z,21.47
2018-09-09T17:48:14.596Z,21.40
2018-09-09T17:50:43.866Z,21.36
2018-09-09T17:53:13.430Z,21.28
2018-09-09T17:55:43.423Z,21.25
2018-09-09T17:58:13.746Z,21.24
2018-09-09T18:00:42.711Z,21.15
2018-09-09T18:03:11.397Z,21.05
2018-09-09T18:05:40.824Z,20.99
2018-09-09T18:08:09.945Z,20.96
2018-09-09T18:10:40.045Z,20.85
2018-09-09T18:13:09.184Z,20.81
2018-09-09T18:15:38.928Z,20.79
2018-09-09T18:18:07.545Z,20.69
2018-09-09T18:20:36.542Z,20.66
2018-09-09T18:23:05.567Z,20.61
2018-09-09T18:25:34.707Z,20.44
2018-09-09T18:28:03.809Z,20.34
2018-09-09T18:30:32.516Z,20.27
2018-09-09T18:33:01.498Z,20.25
2018-09-09T18:35:30.970Z,20.16
2018-09-09T18:37:59.429Z,20.15
2018-09-09T18:40:28.069Z,20.09
2018-09-09T18:42:56.892Z,20.01
2018-09-09T18:45:25.947Z,19.96
2018-09-09T18:47:55.157Z,19.89
2018-09-09T18:50:23.866Z,19.80
2018-09-09T18:52:53.322Z,19.73
2018-09-09T18:55:22.004Z,19.74
2018-09-09T18:57:50.742Z,19.66
2018-09-09T19:00:19.400Z,19.59
2018-09-09T19:02:48.308Z,19.56
2018-09-09T19:05:17.152Z,19.50
2018-09-09T19:07:46.165Z,19.38
2018-09-09T19:10:15.512Z,19.29
2018-09-09T19:12:45.578Z,19.27
2018-09-09T19:15:16.314Z,19.21
2018-09-09T19:17:45.132Z,19.16
2018-09-09T19:20:13.872Z,19.11
2018-09-09T19:22:42.359Z,19.04
2018-09-09T19:25:11.856Z,18.93
2018-09-09T19:27:40.444Z,18.80
2018-09-09T19:30:09.333Z,18.75
2018-09-09T19:32:38.434Z,18.78
2018-09-09T19:35:06.987Z,18.68
2018-09-09T19:37:35.849Z,18.50
2018-09-09T19:40:04.583Z,18.42
2018-09-09T19:42:37.484Z,18.37
2018-09-09T19:45:06.667Z,18.38
2018-09-09T19:47:35.758Z,18.37
2018-09-09T19:50:06.193Z,18.39
2018-09-09T19:52:35.111Z,18.35
2018-09-09T19:55:04.089Z,18.29
2018-09-09T19:57:32.894Z,18.26
2018-09-09T20:00:01.640Z,18.13
2018-09-09T20:02:30.520Z,18.15
2018-09-09T20:04:59.328Z,18.07
2018-09-09T20:07:28.236Z,18.04
2018-09-09T20:09:57.273Z,17.96
2018-09-09T20:12:26.105Z,17.96
2018-09-09T20:14:55.062Z,17.93
2018-09-09T20:17:24.076Z,17.82
2018-09-09T20:19:53.090Z,17.84
2018-09-09T20:22:22.451Z,17.74
2018-09-09T20:24:51.035Z,17.69
2018-09-09T20:27:20.692Z,17.71
2018-09-09T20:29:50.239Z,17.67
2018-09-09T20:32:18.763Z,17.65
2018-09-09T20:34:47.738Z,17.51
2018-09-09T20:37:16.440Z,17.51
2018-09-09T20:39:45.564Z,17.46
2018-09-09T20:42:14.579Z,17.44
2018-09-09T20:44:43.576Z,17.36
2018-09-09T20:47:13.813Z,17.32
2018-09-09T20:49:42.702Z,17.23
2018-09-09T20:52:11.515Z,17.17
2018-09-09T20:54:40.723Z,17.15
2018-09-09T20:57:09.838Z,17.10
2018-09-09T20:59:38.499Z,17.07
2018-09-09T21:02:07.336Z,17.03
2018-09-09T21:04:35.939Z,16.96
2018-09-09T21:07:06.092Z,16.87
2018-09-09T21:09:34.645Z,16.86
2018-09-09T21:12:03.171Z,16.86
2018-09-09T21:14:31.771Z,16.81
2018-09-09T21:17:00.591Z,16.76
2018-09-09T21:19:29.413Z,16.71
2018-09-09T21:21:57.821Z,16.62
2018-09-09T21:24:26.311Z,16.65
2018-09-09T21:26:54.770Z,16.64
2018-09-09T21:29:24.018Z,16.66
2018-09-09T21:31:53.257Z,16.63
2018-09-09T21:34:22.928Z,16.65
2018-09-09T21:36:51.386Z,16.62
2018-09-09T21:39:19.969Z,16.57
2018-09-09T21:41:48.472Z,16.62
2018-09-09T21:44:17.359Z,16.55
2018-09-09T21:46:45.886Z,16.51
2018-09-09T21:49:14.935Z,16.54
2018-09-09T21:51:43.865Z,16.45
2018-09-09T21:54:12.500Z,16.50
2018-09-09T21:56:42.226Z,16.46
2018-09-09T21:59:10.995Z,16.50
2018-09-09T22:01:44.711Z,16.48
2018-09-09T22:04:13.493Z,16.47
2018-09-09T22:06:42.045Z,16.44
2018-09-09T22:09:10.555Z,16.38
2018-09-09T22:11:39.611Z,16.40
2018-09-09T22:14:08.927Z,16.40
2018-09-09T22:16:37.376Z,16.38
2018-09-09T22:19:06.132Z,16.40
2018-09-09T22:21:34.739Z,16.41
2018-09-09T22:24:03.558Z,16.45
2018-09-09T22:26:32.078Z,16.45
2018-09-09T22:29:00.525Z,16.46
2018-09-09T22:31:29.279Z,16.45
2018-09-09T22:33:57.911Z,16.42
2018-09-09T22:36:26.670Z,16.46
2018-09-09T22:38:55.348Z,16.45
2018-09-09T22:41:23.968Z,16.48
2018-09-09T22:43:52.448Z,16.45
2018-09-09T22:46:21.049Z,16.46
2018-09-09T22:48:49.900Z,16.42
2018-09-09T22:51:18.684Z,16.49
2018-09-09T22:53:47.980Z,16.43
2018-09-09T22:56:16.421Z,16.40
2018-09-09T22:58:45.064Z,16.38
2018-09-09T23:01:14.036Z,16.37
2018-09-09T23:03:42.916Z,16.31
2018-09-09T23:06:11.712Z,16.29
2018-09-09T23:08:40.405Z,16.26
2018-09-09T23:11:08.992Z,16.20
2018-09-09T23:13:37.562Z,16.20
2018-09-09T23:16:06.160Z,16.21
2018-09-09T23:18:34.684Z,16.18
2018-09-09T23:21:03.164Z,16.11
2018-09-09T23:23:31.793Z,16.10
2018-09-09T23:26:00.489Z,16.10
2018-09-09T23:28:29.078Z,16.07
2018-09-09T23:30:57.631Z,16.09
2018-09-09T23:33:26.288Z,16.08
2018-09-09T23:35:54.867Z,16.07
2018-09-09T23:38:23.418Z,16.06
2018-09-09T23:40:52.074Z,16.03
2018-09-09T23:43:20.799Z,16.03
2018-09-09T23:45:49.362Z,16.02
2018-09-09T23:48:18.035Z,16.03
2018-09-09T23:50:46.716Z,15.96
2018-09-09T23:53:15.310Z,15.98
2018-09-09T23:55:44.245Z,15.97
2018-09-09T23:58:14.074Z,16.00
